createdAt,value
2023-02-28T00:13:54.534Z,2.72
2023-02-28T00:34:00.320Z,2.93
2023-02-28T00:54:06.144Z,2.92
2023-02-28T01:14:12.065Z,3.20
2023-02-28T01:34:17.870Z,3.56
2023-02-28T01:54:23.647Z,3.15
2023-02-28T02:14:29.516Z,3.91
2023-02-28T02:34:35.340Z,3.61
2023-02-28T02:54:41.089Z,3.98
2023-02-28T03:14:46.845Z,4.07
2023-02-28T03:34:52.582Z,4.65
2023-02-28T03:54:58.330Z,4.20
2023-02-28T04:15:04.070Z,5.03
2023-02-28T04:35:12.245Z,4.04
2023-02-28T04:55:15.149Z,4.86
2023-02-28T05:15:20.887Z,4.69
2023-02-28T05:35:26.693Z,4.99
2023-02-28T05:55:32.422Z,5.69
2023-02-28T06:15:38.218Z,5.46
2023-02-28T06:35:44.002Z,4.87
2023-02-28T06:55:49.759Z,4.81
2023-02-28T07:15:55.557Z,4.70
2023-02-28T07:36:01.374Z,4.30
2023-02-28T07:56:07.138Z,4.20
2023-02-28T08:16:12.984Z,4.54
2023-02-28T08:36:18.846Z,4.95
2023-02-28T08:56:24.440Z,3.60
2023-02-28T09:16:30.241Z,4.51
2023-02-28T09:36:44.620Z,4.85
2023-02-28T09:56:41.318Z,4.39
2023-02-28T10:16:47.070Z,5.36
2023-02-28T10:36:52.856Z,4.45
2023-02-28T10:56:58.654Z,4.78
2023-02-28T11:17:04.427Z,5.34
2023-02-28T11:37:10.584Z,5.02
2023-02-28T11:57:16.201Z,5.60
2023-02-28T12:17:21.968Z,5.75
2023-02-28T12:37:27.750Z,5.16
2023-02-28T12:57:33.512Z,5.19
2023-02-28T13:17:39.304Z,5.41
2023-02-28T13:37:45.095Z,4.56
2023-02-28T13:57:51.337Z,5.11
2023-02-28T14:17:56.086Z,4.84
2023-02-28T14:38:01.840Z,5.32
2023-02-28T14:58:07.676Z,5.63
2023-02-28T15:18:13.377Z,5.36
2023-02-28T15:38:19.133Z,5.31
2023-02-28T15:58:24.917Z,6.47
2023-02-28T16:18:30.707Z,6.74
2023-02-28T16:38:36.459Z,6.84
2023-02-28T16:58:42.218Z,7.34
2023-02-28T17:18:47.972Z,8.37
2023-02-28T17:38:54.801Z,9.14
2023-02-28T17:59:01.026Z,9.39
2023-02-28T18:19:06.745Z,9.48
2023-02-28T18:39:13.051Z,9.55
2023-02-28T18:59:19.108Z,20.57
2023-02-28T19:19:24.873Z,20.18
2023-02-28T19:39:31.007Z,12.60
2023-02-28T19:59:39.640Z,11.04
2023-02-28T20:19:47.560Z,11.72
2023-02-28T20:39:57.409Z,11.82
2023-02-28T21:00:03.179Z,13.11
2023-02-28T21:20:09.768Z,13.00
2023-02-28T21:40:15.525Z,10.87
2023-02-28T22:00:21.835Z,11.09
2023-02-28T22:20:27.570Z,12.49
2023-02-28T22:40:34.825Z,11.59
2023-02-28T23:00:38.658Z,11.03
2023-02-28T23:20:44.419Z,11.14
2023-02-28T23:40:54.350Z,10.42
